createdAt,value
2022-12-18T00:01:15.595Z,12.05
2022-12-18T00:03:42.482Z,13.33
2022-12-18T00:06:09.259Z,12.17
2022-12-18T00:08:35.824Z,14.05
2022-12-18T00:11:07.082Z,11.83
2022-12-18T00:13:34.023Z,14.93
2022-12-18T00:16:05.168Z,14.82
2022-12-18T00:18:32.239Z,14.00
2022-12-18T00:21:03.880Z,11.15
2022-12-18T00:23:31.259Z,11.77
2022-12-18T00:26:06.635Z,11.13
2022-12-18T00:28:33.586Z,12.30
2022-12-18T00:31:11.525Z,15.37
2022-12-18T00:33:39.206Z,13.65
2022-12-18T00:36:08.577Z,13.23
2022-12-18T00:38:35.283Z,12.43
2022-12-18T00:41:02.279Z,11.70
2022-12-18T00:43:28.817Z,13.40
2022-12-18T00:45:55.343Z,12.47
2022-12-18T00:48:22.234Z,14.70
2022-12-18T00:50:49.812Z,13.60
2022-12-18T00:53:16.528Z,11.60
2022-12-18T00:55:43.688Z,13.23
2022-12-18T00:58:11.061Z,12.33
2022-12-18T01:00:37.665Z,12.45
2022-12-18T01:03:04.993Z,11.87
2022-12-18T01:05:31.758Z,15.00
2022-12-18T01:07:58.702Z,12.37
2022-12-18T01:10:25.902Z,11.83
2022-12-18T01:12:52.755Z,13.23
2022-12-18T01:15:20.157Z,13.70
2022-12-18T01:17:46.776Z,12.83
2022-12-18T01:20:13.883Z,15.02
2022-12-18T01:22:40.321Z,11.60
2022-12-18T01:25:06.980Z,13.57
2022-12-18T01:27:35.039Z,12.82
2022-12-18T01:30:01.517Z,14.27
2022-12-18T01:32:31.413Z,11.32
2022-12-18T01:34:58.027Z,12.70
2022-12-18T01:37:24.415Z,12.77
2022-12-18T01:39:50.927Z,12.33
2022-12-18T01:42:18.168Z,12.47
2022-12-18T01:45:06.060Z,11.85
2022-12-18T01:47:46.435Z,11.20
2022-12-18T01:50:17.690Z,13.70
2022-12-18T01:52:48.884Z,17.60
2022-12-18T01:55:19.195Z,11.10
2022-12-18T01:57:46.017Z,12.93
2022-12-18T02:00:16.410Z,11.48
2022-12-18T02:02:44.929Z,13.67
2022-12-18T02:05:13.798Z,12.03
2022-12-18T02:07:52.407Z,12.87
2022-12-18T02:10:42.612Z,13.00
2022-12-18T02:13:12.060Z,12.80
2022-12-18T02:15:59.727Z,12.63
2022-12-18T02:18:33.521Z,14.07
2022-12-18T02:21:09.256Z,10.23
2022-12-18T02:23:53.469Z,14.70
2022-12-18T02:26:26.883Z,12.20
2022-12-18T02:29:08.829Z,11.40
2022-12-18T02:31:42.242Z,11.93
2022-12-18T02:34:10.211Z,11.13
2022-12-18T02:36:41.527Z,11.93
2022-12-18T02:39:11.849Z,11.13
2022-12-18T02:41:39.631Z,13.50
2022-12-18T02:44:12.358Z,14.10
2022-12-18T02:46:45.317Z,11.48
2022-12-18T02:49:30.397Z,13.27
2022-12-18T02:52:13.487Z,11.68
2022-12-18T02:54:48.857Z,13.40
2022-12-18T02:57:36.441Z,10.43
2022-12-18T03:00:26.747Z,11.93
2022-12-18T03:03:03.615Z,10.82
2022-12-18T03:05:42.016Z,11.30
2022-12-18T03:08:13.487Z,12.15
2022-12-18T03:10:46.921Z,12.47
2022-12-18T03:13:20.940Z,12.18
2022-12-18T03:15:51.787Z,11.90
2022-12-18T03:18:26.795Z,11.30
2022-12-18T03:20:57.858Z,12.52
2022-12-18T03:23:29.743Z,10.93
2022-12-18T03:26:05.851Z,13.97
2022-12-18T03:28:37.931Z,11.30
2022-12-18T03:31:08.071Z,11.10
2022-12-18T03:33:51.829Z,14.02
2022-12-18T03:36:18.815Z,12.23
2022-12-18T03:38:45.272Z,10.47
2022-12-18T03:41:17.776Z,11.60
2022-12-18T03:44:21.861Z,10.93
2022-12-18T03:47:07.794Z,11.97
2022-12-18T03:50:12.299Z,10.83
2022-12-18T03:52:45.535Z,11.83
2022-12-18T03:55:13.149Z,11.90
2022-12-18T03:57:40.483Z,11.17
2022-12-18T04:00:11.544Z,10.63
2022-12-18T04:02:42.104Z,10.77
2022-12-18T04:05:10.641Z,11.48
2022-12-18T04:07:39.247Z,9.83
2022-12-18T04:10:07.930Z,9.87
2022-12-18T04:12:34.307Z,9.00
2022-12-18T04:15:00.709Z,12.23
2022-12-18T04:17:27.099Z,9.27
2022-12-18T04:19:53.476Z,11.27
2022-12-18T04:22:19.820Z,10.00
2022-12-18T04:24:46.991Z,10.43
2022-12-18T04:27:13.566Z,11.83
2022-12-18T04:29:39.950Z,9.80
2022-12-18T04:32:06.711Z,10.57
2022-12-18T04:34:33.068Z,8.47
2022-12-18T04:36:59.455Z,10.98
2022-12-18T04:39:25.892Z,11.07
2022-12-18T04:41:52.592Z,10.30
2022-12-18T04:44:19.196Z,10.23
2022-12-18T04:46:45.674Z,9.70
2022-12-18T04:49:12.146Z,9.57
2022-12-18T04:51:38.642Z,10.40
2022-12-18T04:54:05.180Z,8.93
2022-12-18T04:56:32.767Z,8.07
2022-12-18T04:58:59.131Z,9.63
2022-12-18T05:01:30.923Z,8.60
2022-12-18T05:04:00.861Z,10.05
2022-12-18T05:06:27.253Z,9.20
2022-12-18T05:08:53.654Z,8.60
2022-12-18T05:11:20.068Z,9.18
2022-12-18T05:13:46.711Z,10.20
2022-12-18T05:16:14.459Z,9.50
2022-12-18T05:18:41.353Z,11.13
2022-12-18T05:21:07.743Z,8.00
2022-12-18T05:23:34.227Z,7.93
2022-12-18T05:26:03.268Z,9.17
2022-12-18T05:28:31.199Z,10.77
2022-12-18T05:31:01.690Z,10.43
2022-12-18T05:33:31.168Z,9.27
2022-12-18T05:35:59.971Z,9.33
2022-12-18T05:38:28.288Z,10.85
2022-12-18T05:40:55.022Z,8.40
2022-12-18T05:43:22.809Z,7.43
2022-12-18T05:45:49.966Z,9.70
2022-12-18T05:48:17.325Z,9.70
2022-12-18T05:50:48.086Z,11.20
2022-12-18T05:53:21.017Z,8.73
2022-12-18T05:55:48.228Z,10.40
2022-12-18T05:58:15.866Z,8.47
2022-12-18T06:00:44.646Z,9.33
2022-12-18T06:03:12.973Z,8.83
2022-12-18T06:05:42.385Z,9.20
2022-12-18T06:08:09.475Z,8.73
2022-12-18T06:10:36.473Z,11.40
2022-12-18T06:13:02.935Z,9.50
2022-12-18T06:15:29.492Z,7.50
2022-12-18T06:17:55.838Z,8.87
2022-12-18T06:20:23.144Z,11.32
2022-12-18T06:22:49.630Z,11.43
2022-12-18T06:25:16.162Z,10.53
2022-12-18T06:27:42.542Z,11.83
2022-12-18T06:30:10.308Z,11.02
2022-12-18T06:32:36.659Z,11.57
2022-12-18T06:35:03.150Z,13.67
2022-12-18T06:37:31.429Z,12.83
2022-12-18T06:39:57.800Z,12.23
2022-12-18T06:42:25.006Z,14.03
2022-12-18T06:44:51.480Z,11.17
2022-12-18T06:47:17.871Z,10.53
2022-12-18T06:49:44.338Z,11.57
2022-12-18T06:52:10.784Z,11.43
2022-12-18T06:54:37.168Z,13.33
2022-12-18T06:57:03.645Z,10.30
2022-12-18T06:59:30.130Z,10.98
2022-12-18T07:01:56.751Z,11.77
2022-12-18T07:04:23.174Z,12.67
2022-12-18T07:06:49.575Z,10.00
2022-12-18T07:09:15.950Z,11.70
2022-12-18T07:11:42.609Z,11.73
2022-12-18T07:14:08.983Z,13.43
2022-12-18T07:16:35.453Z,11.18
2022-12-18T07:19:01.843Z,11.50
2022-12-18T07:21:28.546Z,12.03
2022-12-18T07:23:54.963Z,12.47
2022-12-18T07:26:22.646Z,14.20
2022-12-18T07:28:49.958Z,11.40
2022-12-18T07:31:19.762Z,13.60
2022-12-18T07:33:48.419Z,12.93
2022-12-18T07:36:15.618Z,11.20
2022-12-18T07:38:42.144Z,11.43
2022-12-18T07:41:12.030Z,14.65
2022-12-18T07:43:39.928Z,13.77
2022-12-18T07:46:07.955Z,11.80
2022-12-18T07:48:34.373Z,12.43
2022-12-18T07:51:05.289Z,11.83
2022-12-18T07:53:32.550Z,13.10
2022-12-18T07:56:26.719Z,13.43
2022-12-18T07:58:52.509Z,13.43
2022-12-18T08:01:19.025Z,13.87
2022-12-18T08:03:45.485Z,13.30
2022-12-18T08:06:11.934Z,12.33
2022-12-18T08:08:38.324Z,14.85
2022-12-18T08:11:04.963Z,13.83
2022-12-18T08:13:31.300Z,14.67
2022-12-18T08:16:16.718Z,13.70
2022-12-18T08:21:21.829Z,12.77
2022-12-18T08:23:48.595Z,15.97
2022-12-18T08:26:16.252Z,16.30
2022-12-18T08:28:43.380Z,10.90
2022-12-18T08:31:10.785Z,11.97
2022-12-18T08:33:39.022Z,12.63
2022-12-18T08:36:06.501Z,13.67
2022-12-18T08:38:34.232Z,11.57
2022-12-18T08:41:01.220Z,12.43
2022-12-18T08:43:46.517Z,11.87
2022-12-18T08:46:13.153Z,14.30
2022-12-18T08:48:39.618Z,13.03
2022-12-18T08:51:06.140Z,12.75
2022-12-18T08:53:35.614Z,13.93
2022-12-18T08:56:02.744Z,13.60
2022-12-18T08:58:29.357Z,11.43
2022-12-18T09:01:01.075Z,13.88
2022-12-18T09:03:27.457Z,13.98
2022-12-18T09:05:53.837Z,13.48
2022-12-18T09:08:20.253Z,16.15
2022-12-18T09:10:49.328Z,15.07
2022-12-18T09:13:16.919Z,12.53
2022-12-18T09:15:52.589Z,14.48
2022-12-18T09:18:20.936Z,12.10
2022-12-18T09:20:47.401Z,12.82
2022-12-18T09:23:13.911Z,15.10
2022-12-18T09:25:40.935Z,12.63
2022-12-18T09:28:12.540Z,14.57
2022-12-18T09:30:45.451Z,17.60
2022-12-18T09:33:12.016Z,14.55
2022-12-18T09:35:40.069Z,13.40
2022-12-18T09:38:07.269Z,14.68
2022-12-18T09:40:42.664Z,12.45
2022-12-18T09:43:17.990Z,13.55
2022-12-18T09:45:50.682Z,15.13
2022-12-18T09:48:24.417Z,14.98
2022-12-18T09:50:52.452Z,13.88
2022-12-18T09:53:25.465Z,13.25
2022-12-18T09:55:53.049Z,14.27
2022-12-18T09:58:40.704Z,12.98
2022-12-18T10:01:17.368Z,14.77
2022-12-18T10:03:43.858Z,12.25
2022-12-18T10:06:21.999Z,11.80
2022-12-18T10:09:05.624Z,10.55
2022-12-18T10:11:44.518Z,12.05
2022-12-18T10:14:43.487Z,12.02
2022-12-18T10:17:16.330Z,14.18
2022-12-18T10:19:53.044Z,13.40
2022-12-18T10:22:27.507Z,12.00
2022-12-18T10:25:46.434Z,13.25
2022-12-18T10:28:18.947Z,10.27
2022-12-18T10:30:45.634Z,11.02
2022-12-18T10:33:18.919Z,11.85
2022-12-18T10:35:47.117Z,11.25
2022-12-18T10:38:13.456Z,12.10
2022-12-18T10:40:55.775Z,11.40
2022-12-18T10:43:25.316Z,12.75
2022-12-18T10:46:23.981Z,11.23
2022-12-18T10:48:58.569Z,10.57
2022-12-18T10:54:06.439Z,13.85
2022-12-18T10:56:36.726Z,12.18
2022-12-18T10:59:05.895Z,9.40
2022-12-18T11:01:57.211Z,12.05
2022-12-18T11:04:29.621Z,13.00
2022-12-18T11:07:04.952Z,12.13
2022-12-18T11:09:36.863Z,10.48
2022-12-18T11:12:23.574Z,11.45
2022-12-18T11:14:52.737Z,13.50
2022-12-18T11:17:37.114Z,11.52
2022-12-18T11:20:21.364Z,13.13
2022-12-18T11:22:59.812Z,12.15
2022-12-18T11:25:35.441Z,13.82
2022-12-18T11:28:27.094Z,11.52
2022-12-18T11:31:20.853Z,13.80
2022-12-18T11:34:26.763Z,12.18
2022-12-18T11:36:48.967Z,12.93
2022-12-18T11:39:34.226Z,12.15
2022-12-18T11:42:10.659Z,10.97
2022-12-18T11:44:44.550Z,13.05
2022-12-18T11:47:43.270Z,13.05
2022-12-18T11:50:24.938Z,12.52
2022-12-18T11:52:56.561Z,13.93
2022-12-18T11:55:50.536Z,12.45
2022-12-18T11:58:45.819Z,13.02
2022-12-18T12:01:35.594Z,12.75
2022-12-18T12:04:16.631Z,12.65
2022-12-18T12:07:04.864Z,15.27
2022-12-18T12:09:46.929Z,16.75
2022-12-18T12:12:24.656Z,13.88
2022-12-18T12:15:21.981Z,12.73
2022-12-18T12:17:59.652Z,13.90
2022-12-18T12:20:51.635Z,16.83
2022-12-18T12:23:39.511Z,13.45
2022-12-18T12:26:37.300Z,13.35
2022-12-18T12:29:23.991Z,14.55
2022-12-18T12:32:12.000Z,15.23
2022-12-18T12:35:09.494Z,13.20
2022-12-18T12:38:00.545Z,14.35
2022-12-18T12:43:27.741Z,14.18
2022-12-18T12:46:05.639Z,16.40
2022-12-18T12:48:48.656Z,16.65
2022-12-18T12:51:22.584Z,18.70
2022-12-18T12:53:49.976Z,16.00
2022-12-18T12:56:19.079Z,17.83
2022-12-18T12:59:12.225Z,16.33
2022-12-18T13:01:48.426Z,14.55
2022-12-18T13:04:43.188Z,16.15
2022-12-18T13:07:51.992Z,18.73
2022-12-18T13:10:20.628Z,19.58
2022-12-18T13:12:58.059Z,17.98
2022-12-18T13:15:26.408Z,17.60
2022-12-18T13:18:11.134Z,19.13
2022-12-18T13:20:42.523Z,18.15
2022-12-18T13:23:40.964Z,17.45
2022-12-18T13:26:07.590Z,17.35
2022-12-18T13:28:34.813Z,17.50
2022-12-18T13:31:02.562Z,20.85
2022-12-18T13:33:34.843Z,16.95
2022-12-18T13:36:10.088Z,18.23
2022-12-18T13:38:38.724Z,17.88
2022-12-18T13:41:14.056Z,18.88
2022-12-18T13:43:44.601Z,17.98
2022-12-18T13:46:37.503Z,19.13
2022-12-18T13:49:13.054Z,20.83
2022-12-18T13:51:43.811Z,20.73
2022-12-18T13:54:35.425Z,19.02
2022-12-18T13:57:03.369Z,17.45
2022-12-18T13:59:39.597Z,21.95
2022-12-18T14:02:22.466Z,22.90
2022-12-18T14:04:50.524Z,22.20
2022-12-18T14:07:22.940Z,22.65
2022-12-18T14:09:58.131Z,20.80
2022-12-18T14:12:50.995Z,17.40
2022-12-18T14:15:31.943Z,20.60
2022-12-18T14:17:58.680Z,21.02
2022-12-18T14:20:30.569Z,20.45
2022-12-18T14:22:58.853Z,20.65
2022-12-18T14:25:31.113Z,22.17
2022-12-18T14:28:15.236Z,22.98
2022-12-18T14:30:46.920Z,19.10
2022-12-18T14:33:28.352Z,20.70
2022-12-18T14:35:56.543Z,22.27
2022-12-18T14:38:36.026Z,20.85
2022-12-18T14:41:05.764Z,20.58
2022-12-18T14:43:37.407Z,25.02
2022-12-18T14:46:06.773Z,21.40
2022-12-18T14:48:33.708Z,20.17
2022-12-18T14:51:06.108Z,21.17
2022-12-18T14:53:42.162Z,20.80
2022-12-18T14:56:16.637Z,19.27
2022-12-18T14:59:04.391Z,20.77
2022-12-18T15:01:35.501Z,21.77
2022-12-18T15:04:03.921Z,21.80
2022-12-18T15:06:34.175Z,23.27
2022-12-18T15:09:03.055Z,21.38
2022-12-18T15:11:35.768Z,22.23
2022-12-18T15:14:30.913Z,21.02
2022-12-18T15:16:59.187Z,23.65
2022-12-18T15:19:39.665Z,23.60
2022-12-18T15:22:18.532Z,22.08
2022-12-18T15:24:45.037Z,20.45
2022-12-18T15:27:31.169Z,21.25
2022-12-18T15:30:10.545Z,25.20
2022-12-18T15:32:38.396Z,22.20
2022-12-18T15:35:18.595Z,22.92
2022-12-18T15:37:45.999Z,20.77
2022-12-18T15:40:14.823Z,23.67
2022-12-18T15:43:03.394Z,21.65
2022-12-18T15:45:29.850Z,23.48
2022-12-18T15:47:56.612Z,25.23
2022-12-18T15:50:23.247Z,22.67
2022-12-18T15:52:52.076Z,24.50
2022-12-18T15:55:40.328Z,23.10
2022-12-18T15:58:09.220Z,22.85
2022-12-18T16:00:38.953Z,25.52
2022-12-18T16:03:06.277Z,24.13
2022-12-18T16:05:32.854Z,25.25
2022-12-18T16:07:59.360Z,24.33
2022-12-18T16:10:27.145Z,25.85
2022-12-18T16:12:53.576Z,22.83
2022-12-18T16:15:24.524Z,24.73
2022-12-18T16:17:51.543Z,25.05
2022-12-18T16:20:21.557Z,25.73
2022-12-18T16:22:49.224Z,26.75
2022-12-18T16:25:28.231Z,29.23
2022-12-18T16:27:56.224Z,28.10
2022-12-18T16:30:26.379Z,27.95
2022-12-18T16:32:52.873Z,29.38
2022-12-18T16:35:19.483Z,28.40
2022-12-18T16:37:45.863Z,27.48
2022-12-18T16:40:15.040Z,27.90
2022-12-18T16:42:42.932Z,25.67
2022-12-18T16:45:11.858Z,28.63
2022-12-18T16:47:39.786Z,28.58
2022-12-18T16:50:07.211Z,29.30
2022-12-18T16:52:33.982Z,29.60
2022-12-18T16:55:00.418Z,30.42
2022-12-18T16:57:26.905Z,28.38
2022-12-18T16:59:53.315Z,33.65
2022-12-18T17:02:24.875Z,27.00
2022-12-18T17:04:57.106Z,36.15
2022-12-18T17:07:24.877Z,29.58
2022-12-18T17:09:51.366Z,31.00
2022-12-18T17:12:18.088Z,32.47
2022-12-18T17:14:45.072Z,29.42
2022-12-18T17:17:26.935Z,33.72
2022-12-18T17:19:53.388Z,34.85
2022-12-18T17:22:20.899Z,28.90
2022-12-18T17:24:47.774Z,33.38
2022-12-18T17:27:14.187Z,29.55
2022-12-18T17:29:46.760Z,32.72
2022-12-18T17:32:14.648Z,32.33
2022-12-18T17:34:41.168Z,33.58
2022-12-18T17:37:07.883Z,30.30
2022-12-18T17:39:34.405Z,30.13
2022-12-18T17:42:01.193Z,31.35
2022-12-18T17:44:27.674Z,30.40
2022-12-18T17:46:54.139Z,31.10
2022-12-18T17:49:21.487Z,31.88
2022-12-18T17:51:47.854Z,34.78
2022-12-18T17:54:14.424Z,33.25
2022-12-18T17:56:40.814Z,31.65
2022-12-18T17:59:07.615Z,34.08
2022-12-18T18:01:37.363Z,34.95
2022-12-18T18:04:07.717Z,36.85
2022-12-18T18:06:34.448Z,37.67
2022-12-18T18:09:03.881Z,34.65
2022-12-18T18:11:49.202Z,36.20
2022-12-18T18:14:19.880Z,32.80
2022-12-18T18:16:49.128Z,35.40
2022-12-18T18:19:18.251Z,33.40
2022-12-18T18:21:47.067Z,36.17
2022-12-18T18:24:15.790Z,37.53
2022-12-18T18:26:42.592Z,35.92
2022-12-18T18:29:16.415Z,35.80
2022-12-18T18:31:43.797Z,38.08
2022-12-18T18:34:25.310Z,35.55
2022-12-18T18:36:52.105Z,34.50
2022-12-18T18:39:19.507Z,34.20
2022-12-18T18:41:47.943Z,38.42
2022-12-18T18:44:15.656Z,35.10
2022-12-18T18:46:42.024Z,36.17
2022-12-18T18:49:08.481Z,37.90
2022-12-18T18:51:35.498Z,38.58
2022-12-18T18:54:02.039Z,33.83
2022-12-18T18:59:15.152Z,34.42
2022-12-18T19:01:41.887Z,39.15
2022-12-18T19:04:08.388Z,38.65
2022-12-18T19:06:34.778Z,37.75
2022-12-18T19:09:02.853Z,40.38
2022-12-18T19:11:48.325Z,40.10
2022-12-18T19:16:43.514Z,37.67
2022-12-18T19:19:10.664Z,39.00
2022-12-18T19:21:38.248Z,37.13
2022-12-18T19:24:05.573Z,37.37
2022-12-18T19:26:32.217Z,35.38
2022-12-18T19:29:03.599Z,37.42
2022-12-18T19:31:35.266Z,36.45
2022-12-18T19:34:03.822Z,37.13
2022-12-18T19:36:33.263Z,39.20
2022-12-18T19:39:01.337Z,36.20
2022-12-18T19:41:31.088Z,36.50
2022-12-18T19:43:58.418Z,33.60
2022-12-18T19:46:24.963Z,37.25
2022-12-18T19:48:52.130Z,38.42
2022-12-18T19:51:27.196Z,39.17
2022-12-18T19:53:58.901Z,39.28
2022-12-18T19:56:33.260Z,37.65
2022-12-18T19:59:00.352Z,36.47
2022-12-18T20:01:28.770Z,45.15
2022-12-18T20:03:58.086Z,37.03
2022-12-18T20:06:36.667Z,37.05
2022-12-18T20:09:06.575Z,38.75
2022-12-18T20:11:41.397Z,36.97
2022-12-18T20:14:09.249Z,38.13
2022-12-18T20:16:35.881Z,36.53
2022-12-18T20:19:02.422Z,34.55
2022-12-18T20:21:29.370Z,43.38
2022-12-18T20:23:56.060Z,38.47
2022-12-18T20:26:23.835Z,34.45
2022-12-18T20:28:50.306Z,36.47
2022-12-18T20:31:16.657Z,38.50
2022-12-18T20:33:44.537Z,38.13
2022-12-18T20:36:22.627Z,37.92
2022-12-18T20:38:57.303Z,38.65
2022-12-18T20:41:25.899Z,39.65
2022-12-18T20:43:54.039Z,37.60
2022-12-18T20:46:20.731Z,38.15
2022-12-18T20:48:48.032Z,35.58
2022-12-18T20:51:17.304Z,36.88
2022-12-18T20:53:44.553Z,38.45
2022-12-18T20:56:15.014Z,37.13
2022-12-18T20:58:45.748Z,41.40
2022-12-18T21:01:17.742Z,38.40
2022-12-18T21:03:48.761Z,39.58
2022-12-18T21:06:17.931Z,39.53
2022-12-18T21:08:44.974Z,37.80
2022-12-18T21:11:35.981Z,38.88
2022-12-18T21:14:13.489Z,37.85
2022-12-18T21:16:40.756Z,38.17
2022-12-18T21:19:07.250Z,34.90
2022-12-18T21:21:35.870Z,35.20
2022-12-18T21:24:05.995Z,41.83
2022-12-18T21:26:32.372Z,40.88
2022-12-18T21:29:01.411Z,36.75
2022-12-18T21:31:31.565Z,37.63
2022-12-18T21:34:02.171Z,33.35
2022-12-18T21:36:29.642Z,34.10
2022-12-18T21:38:57.226Z,39.67
2022-12-18T21:41:43.967Z,36.45
2022-12-18T21:44:15.305Z,35.38
2022-12-18T21:46:44.715Z,41.70
2022-12-18T21:49:14.447Z,36.17
2022-12-18T21:51:41.805Z,39.28
2022-12-18T21:54:08.221Z,39.03
2022-12-18T21:56:53.054Z,38.22
2022-12-18T21:59:26.405Z,37.08
2022-12-18T22:01:54.637Z,38.92
2022-12-18T22:04:21.735Z,35.03
2022-12-18T22:06:49.090Z,37.50
2022-12-18T22:09:18.729Z,37.88
2022-12-18T22:11:45.695Z,42.33
2022-12-18T22:14:13.637Z,36.63
2022-12-18T22:16:40.509Z,39.03
2022-12-18T22:19:07.788Z,42.80
2022-12-18T22:21:36.143Z,39.63
2022-12-18T22:24:06.057Z,42.60
2022-12-18T22:26:39.447Z,38.58
2022-12-18T22:29:26.266Z,39.63
2022-12-18T22:31:52.672Z,41.20
2022-12-18T22:34:22.844Z,38.40
2022-12-18T22:36:50.655Z,37.22
2022-12-18T22:39:25.468Z,40.55
2022-12-18T22:41:52.206Z,41.45
2022-12-18T22:44:19.398Z,38.83
2022-12-18T22:46:53.999Z,37.20
2022-12-18T22:49:32.299Z,42.17
2022-12-18T22:52:00.341Z,39.15
2022-12-18T22:54:26.701Z,40.45
2022-12-18T22:56:53.067Z,41.33
2022-12-18T22:59:23.249Z,42.95
2022-12-18T23:01:51.453Z,41.92
2022-12-18T23:04:28.381Z,41.33
2022-12-18T23:06:57.601Z,41.72
2022-12-18T23:09:24.152Z,44.13
2022-12-18T23:11:50.793Z,42.70
2022-12-18T23:14:17.281Z,43.25
2022-12-18T23:16:43.765Z,39.13
2022-12-18T23:19:12.593Z,39.55
2022-12-18T23:21:39.291Z,44.67
2022-12-18T23:24:06.106Z,41.90
2022-12-18T23:26:32.500Z,40.38
2022-12-18T23:28:58.942Z,42.63
2022-12-18T23:31:28.349Z,40.92
2022-12-18T23:33:57.092Z,42.55
2022-12-18T23:36:24.212Z,40.53
2022-12-18T23:38:55.385Z,42.00
2022-12-18T23:41:23.907Z,47.70
2022-12-18T23:43:50.730Z,45.13
2022-12-18T23:46:24.101Z,44.15
2022-12-18T23:48:51.745Z,40.33
2022-12-18T23:51:20.520Z,44.22
2022-12-18T23:53:46.848Z,43.80
2022-12-18T23:56:14.579Z,47.45
2022-12-18T23:58:42.183Z,43.28
